createdAt,value
2023-02-21T00:01:26.186Z,72.30
2023-02-21T00:03:52.677Z,72.50
2023-02-21T00:06:19.198Z,72.60
2023-02-21T00:08:50.450Z,72.70
2023-02-21T00:11:17.038Z,72.70
2023-02-21T00:13:43.552Z,72.30
2023-02-21T00:16:10.122Z,72.30
2023-02-21T00:18:36.598Z,72.50
2023-02-21T00:21:03.064Z,72.60
2023-02-21T00:23:29.550Z,72.80
2023-02-21T00:25:56.029Z,72.80
2023-02-21T00:28:22.489Z,72.70
2023-02-21T00:30:49.057Z,72.80
2023-02-21T00:33:15.598Z,72.80
2023-02-21T00:35:42.128Z,72.60
2023-02-21T00:38:08.627Z,72.40
2023-02-21T00:40:35.146Z,72.60
2023-02-21T00:43:01.627Z,72.60
2023-02-21T00:45:28.136Z,72.70
2023-02-21T00:47:54.604Z,72.60
2023-02-21T00:50:21.102Z,72.60
2023-02-21T00:52:47.576Z,72.50
2023-02-21T00:55:14.036Z,72.40
2023-02-21T00:57:40.511Z,72.40
2023-02-21T01:00:07.034Z,72.50
2023-02-21T01:02:33.500Z,72.70
2023-02-21T01:04:59.970Z,72.60
2023-02-21T01:07:26.436Z,72.50
2023-02-21T01:09:52.926Z,72.60
2023-02-21T01:12:19.392Z,72.70
2023-02-21T01:14:45.883Z,73.00
2023-02-21T01:17:13.585Z,73.00
2023-02-21T01:19:40.254Z,72.90
2023-02-21T01:22:06.722Z,72.90
2023-02-21T01:24:33.208Z,72.60
2023-02-21T01:26:59.703Z,72.80
2023-02-21T01:29:26.182Z,72.70
2023-02-21T01:31:52.649Z,72.70
2023-02-21T01:34:19.131Z,72.60
2023-02-21T01:36:50.399Z,72.60
2023-02-21T01:39:16.877Z,72.40
2023-02-21T01:41:43.345Z,72.40
2023-02-21T01:44:09.818Z,72.50
2023-02-21T01:46:36.287Z,72.60
2023-02-21T01:49:02.783Z,72.70
2023-02-21T01:51:29.273Z,72.50
2023-02-21T01:53:55.722Z,72.50
2023-02-21T01:56:22.184Z,72.50
2023-02-21T01:58:48.658Z,72.50
2023-02-21T02:01:15.516Z,72.50
2023-02-21T02:03:42.142Z,72.60
2023-02-21T02:06:08.628Z,72.70
2023-02-21T02:08:35.104Z,72.80
2023-02-21T02:11:01.594Z,72.90
2023-02-21T02:13:28.075Z,72.70
2023-02-21T02:15:54.587Z,72.60
2023-02-21T02:18:21.091Z,72.60
2023-02-21T02:20:47.577Z,72.60
2023-02-21T02:23:14.044Z,72.60
2023-02-21T02:25:40.550Z,72.60
2023-02-21T02:28:07.018Z,72.90
2023-02-21T02:30:33.514Z,72.70
2023-02-21T02:33:00.015Z,72.70
2023-02-21T02:35:26.499Z,72.70
2023-02-21T02:37:52.974Z,72.50
2023-02-21T02:40:19.458Z,72.60
2023-02-21T02:42:45.949Z,72.60
2023-02-21T02:45:12.432Z,72.70
2023-02-21T02:47:38.906Z,72.60
2023-02-21T02:50:05.374Z,72.50
2023-02-21T02:52:31.849Z,72.30
2023-02-21T02:54:58.322Z,72.30
2023-02-21T02:57:24.807Z,72.50
2023-02-21T02:59:51.274Z,72.70
2023-02-21T03:02:17.743Z,72.70
2023-02-21T03:04:44.209Z,72.80
2023-02-21T03:07:10.690Z,73.10
2023-02-21T03:09:37.181Z,73.10
2023-02-21T03:12:03.651Z,73.00
2023-02-21T03:14:30.129Z,72.80
2023-02-21T03:16:56.615Z,73.00
2023-02-21T03:19:23.088Z,72.90
2023-02-21T03:21:49.564Z,73.00
2023-02-21T03:24:16.067Z,73.10
2023-02-21T03:26:42.578Z,73.10
2023-02-21T03:29:09.078Z,73.00
2023-02-21T03:31:35.673Z,73.10
2023-02-21T03:34:02.243Z,73.20
2023-02-21T03:36:28.719Z,73.20
2023-02-21T03:38:55.185Z,73.00
2023-02-21T03:41:21.676Z,73.10
2023-02-21T03:43:48.200Z,73.00
2023-02-21T03:46:14.719Z,73.00
2023-02-21T03:48:41.185Z,72.90
2023-02-21T03:51:07.676Z,73.10
2023-02-21T03:53:34.160Z,73.80
2023-02-21T03:56:00.628Z,73.00
2023-02-21T03:58:27.116Z,73.10
2023-02-21T04:00:53.608Z,73.10
2023-02-21T04:03:20.352Z,73.00
2023-02-21T04:05:46.870Z,73.10
2023-02-21T04:08:13.335Z,73.10
2023-02-21T04:10:51.290Z,72.90
2023-02-21T04:13:18.754Z,72.80
2023-02-21T04:15:45.201Z,73.00
2023-02-21T04:18:11.664Z,73.00
2023-02-21T04:20:38.120Z,73.10
2023-02-21T04:23:04.611Z,73.00
2023-02-21T04:25:31.124Z,72.80
2023-02-21T04:27:57.584Z,72.80
2023-02-21T04:30:24.120Z,72.80
2023-02-21T04:32:50.664Z,72.90
2023-02-21T04:35:17.121Z,72.90
2023-02-21T04:37:43.584Z,73.00
2023-02-21T04:40:10.035Z,72.90
2023-02-21T04:42:36.501Z,72.90
2023-02-21T04:45:02.976Z,72.90
2023-02-21T04:47:29.464Z,72.70
2023-02-21T04:49:55.943Z,72.90
2023-02-21T04:52:22.423Z,72.90
2023-02-21T04:54:50.554Z,72.90
2023-02-21T04:57:17.026Z,72.80
2023-02-21T04:59:43.503Z,72.90
2023-02-21T05:02:09.972Z,72.90
2023-02-21T05:04:36.504Z,72.70
2023-02-21T05:07:03.007Z,72.80
2023-02-21T05:09:29.519Z,73.00
2023-02-21T05:11:55.999Z,73.00
2023-02-21T05:14:22.468Z,72.90
2023-02-21T05:16:49.003Z,72.90
2023-02-21T05:19:15.516Z,72.80
2023-02-21T05:21:41.987Z,73.00
2023-02-21T05:24:08.476Z,73.10
2023-02-21T05:26:34.942Z,73.00
2023-02-21T05:29:01.422Z,73.10
2023-02-21T05:31:28.002Z,73.10
2023-02-21T05:33:54.501Z,73.20
2023-02-21T05:36:20.984Z,73.20
2023-02-21T05:38:47.467Z,73.20
2023-02-21T05:41:14.243Z,73.40
2023-02-21T05:43:40.854Z,73.30
2023-02-21T05:46:07.422Z,73.20
2023-02-21T05:48:33.899Z,73.20
2023-02-21T05:51:00.372Z,73.10
2023-02-21T05:53:26.783Z,73.20
2023-02-21T05:55:53.268Z,73.10
2023-02-21T05:58:19.735Z,73.10
2023-02-21T06:00:46.223Z,73.00
2023-02-21T06:03:12.708Z,72.90
2023-02-21T06:05:39.197Z,72.90
2023-02-21T06:08:05.666Z,72.80
2023-02-21T06:10:32.140Z,73.00
2023-02-21T06:12:58.609Z,73.00
2023-02-21T06:15:25.089Z,73.00
2023-02-21T06:17:51.553Z,73.00
2023-02-21T06:20:18.023Z,73.00
2023-02-21T06:22:44.510Z,73.10
2023-02-21T06:25:10.994Z,72.90
2023-02-21T06:27:37.491Z,73.00
2023-02-21T06:30:04.024Z,73.20
2023-02-21T06:32:30.490Z,73.20
2023-02-21T06:34:56.948Z,73.20
2023-02-21T06:37:23.458Z,73.00
2023-02-21T06:39:49.943Z,73.10
2023-02-21T06:42:16.414Z,73.20
2023-02-21T06:44:42.894Z,73.00
2023-02-21T06:47:09.361Z,72.90
2023-02-21T06:49:35.842Z,73.20
2023-02-21T06:52:02.317Z,73.00
2023-02-21T06:54:28.776Z,72.90
2023-02-21T06:56:55.276Z,72.80
2023-02-21T06:59:21.742Z,73.10
2023-02-21T07:01:48.270Z,72.80
2023-02-21T07:04:14.907Z,72.90
2023-02-21T07:06:41.456Z,73.10
2023-02-21T07:09:07.921Z,72.90
2023-02-21T07:11:34.378Z,72.90
2023-02-21T07:14:00.853Z,72.80
2023-02-21T07:16:27.343Z,72.90
2023-02-21T07:18:53.839Z,72.90
2023-02-21T07:21:20.344Z,72.90
2023-02-21T07:23:46.849Z,73.10
2023-02-21T07:26:13.324Z,73.30
2023-02-21T07:28:39.789Z,73.30
2023-02-21T07:31:06.303Z,73.10
2023-02-21T07:33:32.794Z,73.20
2023-02-21T07:35:59.270Z,73.20
2023-02-21T07:38:25.764Z,73.40
2023-02-21T07:40:52.229Z,73.20
2023-02-21T07:43:18.699Z,73.10
2023-02-21T07:45:45.180Z,73.00
2023-02-21T07:48:11.667Z,73.10
2023-02-21T07:50:38.168Z,72.80
2023-02-21T07:53:04.623Z,72.80
2023-02-21T07:55:31.097Z,72.70
2023-02-21T07:57:57.586Z,72.80
2023-02-21T08:00:24.066Z,73.10
2023-02-21T08:02:50.537Z,73.10
2023-02-21T08:05:17.046Z,73.10
2023-02-21T08:07:43.530Z,73.00
2023-02-21T08:10:10.018Z,73.20
2023-02-21T08:12:36.499Z,73.20
2023-02-21T08:15:02.982Z,73.10
2023-02-21T08:17:29.447Z,73.10
2023-02-21T08:19:55.916Z,73.10
2023-02-21T08:22:22.403Z,72.90
2023-02-21T08:24:48.879Z,73.20
2023-02-21T08:27:15.341Z,73.20
2023-02-21T08:29:41.817Z,73.30
2023-02-21T08:32:08.309Z,73.10
2023-02-21T08:34:34.776Z,73.30
2023-02-21T08:37:01.256Z,73.00
2023-02-21T08:39:27.714Z,73.10
2023-02-21T08:41:54.197Z,72.90
2023-02-21T08:44:20.670Z,73.10
2023-02-21T08:46:49.609Z,73.40
2023-02-21T08:49:16.244Z,73.30
2023-02-21T08:51:42.738Z,73.30
2023-02-21T08:54:09.219Z,73.50
2023-02-21T08:56:35.707Z,73.60
2023-02-21T08:59:02.199Z,73.60
2023-02-21T09:01:28.784Z,73.70
2023-02-21T09:03:55.322Z,73.40
2023-02-21T09:06:21.830Z,73.40
2023-02-21T09:08:48.311Z,73.20
2023-02-21T09:11:15.048Z,73.10
2023-02-21T09:13:44.885Z,73.10
2023-02-21T09:16:11.431Z,73.20
2023-02-21T09:18:37.932Z,73.40
2023-02-21T09:21:04.435Z,73.30
2023-02-21T09:23:32.137Z,73.30
2023-02-21T09:25:58.632Z,73.20
2023-02-21T09:28:25.097Z,73.20
2023-02-21T09:30:51.575Z,73.00
2023-02-21T09:33:18.067Z,73.00
2023-02-21T09:35:44.529Z,73.00
2023-02-21T09:38:11.001Z,73.10
2023-02-21T09:40:37.519Z,73.10
2023-02-21T09:43:04.022Z,73.20
2023-02-21T09:45:30.533Z,73.20
2023-02-21T09:47:57.026Z,73.40
2023-02-21T09:50:23.492Z,73.20
2023-02-21T09:52:49.978Z,73.10
2023-02-21T09:55:16.435Z,73.30
2023-02-21T09:57:42.915Z,73.40
2023-02-21T10:00:09.394Z,73.20
2023-02-21T10:02:35.886Z,73.20
2023-02-21T10:05:02.414Z,73.20
2023-02-21T10:07:28.894Z,73.40
2023-02-21T10:09:55.384Z,73.40
2023-02-21T10:12:21.886Z,73.50
2023-02-21T10:14:48.345Z,73.20
2023-02-21T10:17:14.823Z,73.20
2023-02-21T10:19:41.296Z,73.60
2023-02-21T10:22:07.799Z,73.60
2023-02-21T10:24:34.297Z,73.50
2023-02-21T10:27:00.805Z,73.30
2023-02-21T10:29:27.311Z,73.20
2023-02-21T10:31:53.978Z,73.20
2023-02-21T10:34:20.476Z,73.00
2023-02-21T10:36:46.949Z,73.20
2023-02-21T10:39:13.422Z,73.50
2023-02-21T10:41:39.904Z,73.40
2023-02-21T10:44:06.416Z,73.60
2023-02-21T10:46:32.894Z,73.60
2023-02-21T10:48:59.364Z,73.60
2023-02-21T10:51:25.828Z,73.60
2023-02-21T10:53:52.305Z,73.50
2023-02-21T10:56:18.796Z,73.40
2023-02-21T10:58:50.844Z,73.20
2023-02-21T11:01:17.712Z,73.20
2023-02-21T11:03:44.513Z,73.30
2023-02-21T11:06:11.021Z,73.40
2023-02-21T11:08:37.517Z,73.30
2023-02-21T11:11:04.012Z,73.60
2023-02-21T11:13:30.509Z,73.40
2023-02-21T11:16:02.898Z,73.30
2023-02-21T11:18:29.397Z,73.20
2023-02-21T11:20:55.894Z,73.20
2023-02-21T11:23:22.404Z,73.20
2023-02-21T11:25:48.869Z,73.30
2023-02-21T11:28:15.346Z,73.30
2023-02-21T11:30:41.903Z,73.60
2023-02-21T11:33:08.432Z,73.50
2023-02-21T11:35:34.904Z,73.60
2023-02-21T11:38:01.374Z,73.50
2023-02-21T11:40:27.859Z,73.60
2023-02-21T11:42:54.327Z,73.60
2023-02-21T11:45:20.802Z,73.80
2023-02-21T11:47:47.259Z,73.70
2023-02-21T11:50:13.715Z,74.00
2023-02-21T11:52:40.177Z,73.80
2023-02-21T11:55:06.670Z,73.70
2023-02-21T11:57:33.152Z,73.50
2023-02-21T11:59:59.638Z,73.50
2023-02-21T12:02:26.135Z,73.50
2023-02-21T12:04:52.634Z,73.60
2023-02-21T12:07:19.110Z,73.50
2023-02-21T12:09:45.602Z,73.50
2023-02-21T12:12:12.063Z,73.50
2023-02-21T12:14:38.528Z,73.50
2023-02-21T12:17:05.048Z,73.60
2023-02-21T12:19:31.522Z,73.40
2023-02-21T12:21:58.195Z,73.70
2023-02-21T12:24:24.730Z,73.70
2023-02-21T12:26:51.208Z,74.50
2023-02-21T12:29:17.707Z,73.90
2023-02-21T12:31:44.261Z,73.80
2023-02-21T12:34:10.819Z,73.50
2023-02-21T12:36:37.256Z,73.40
2023-02-21T12:39:03.730Z,73.50
2023-02-21T12:41:30.201Z,73.50
2023-02-21T12:43:56.682Z,73.80
2023-02-21T12:46:23.194Z,73.70
2023-02-21T12:48:49.724Z,73.70
2023-02-21T12:51:16.564Z,73.40
2023-02-21T12:53:43.221Z,73.40
2023-02-21T12:56:09.715Z,73.60
2023-02-21T12:58:36.191Z,73.80
2023-02-21T13:01:02.677Z,73.90
2023-02-21T13:03:29.142Z,73.80
2023-02-21T13:05:55.633Z,73.70
2023-02-21T13:08:22.086Z,73.80
2023-02-21T13:10:48.553Z,73.90
2023-02-21T13:13:15.076Z,73.80
2023-02-21T13:15:41.539Z,73.80
2023-02-21T13:18:08.003Z,73.80
2023-02-21T13:20:34.479Z,73.80
2023-02-21T13:23:00.968Z,73.80
2023-02-21T13:25:27.448Z,73.80
2023-02-21T13:27:53.912Z,73.80
2023-02-21T13:30:20.416Z,73.70
2023-02-21T13:32:46.912Z,73.80
2023-02-21T13:35:13.404Z,73.80
2023-02-21T13:37:39.874Z,73.90
2023-02-21T13:40:06.379Z,73.80
2023-02-21T13:42:32.868Z,73.80
2023-02-21T13:44:59.353Z,73.70
2023-02-21T13:47:25.825Z,73.70
2023-02-21T13:49:52.275Z,73.80
2023-02-21T13:52:18.755Z,73.80
2023-02-21T13:54:45.205Z,73.50
2023-02-21T13:57:11.716Z,73.60
2023-02-21T13:59:38.187Z,73.80
2023-02-21T14:02:04.673Z,73.60
2023-02-21T14:04:31.152Z,73.60
2023-02-21T14:06:57.641Z,73.60
2023-02-21T14:09:24.106Z,73.70
2023-02-21T14:11:50.576Z,73.80
2023-02-21T14:14:17.064Z,73.90
2023-02-21T14:16:43.573Z,73.90
2023-02-21T14:19:10.116Z,74.00
2023-02-21T14:21:36.636Z,73.90
2023-02-21T14:24:03.098Z,73.70
2023-02-21T14:26:29.577Z,73.60
2023-02-21T14:28:56.049Z,73.80
2023-02-21T14:31:22.527Z,73.80
2023-02-21T14:33:49.004Z,73.80
2023-02-21T14:36:15.464Z,73.80
2023-02-21T14:38:41.927Z,73.80
2023-02-21T14:41:08.390Z,73.60
2023-02-21T14:43:34.874Z,73.80
2023-02-21T14:46:01.407Z,73.70
2023-02-21T14:48:27.895Z,73.60
2023-02-21T14:50:54.353Z,73.70
2023-02-21T14:53:20.829Z,73.60
2023-02-21T14:55:47.303Z,73.60
2023-02-21T14:58:13.760Z,73.60
2023-02-21T15:00:40.326Z,73.70
2023-02-21T15:03:06.861Z,73.80
2023-02-21T15:05:33.340Z,73.90
2023-02-21T15:07:59.830Z,73.90
2023-02-21T15:10:26.312Z,73.90
2023-02-21T15:12:53.020Z,73.80
2023-02-21T15:15:19.529Z,73.90
2023-02-21T15:17:46.023Z,73.80
2023-02-21T15:20:12.512Z,73.90
2023-02-21T15:22:39.002Z,73.80
2023-02-21T15:25:05.493Z,73.90
2023-02-21T15:27:31.994Z,73.80
2023-02-21T15:29:58.491Z,73.80
2023-02-21T15:32:24.969Z,73.80
2023-02-21T15:34:51.461Z,73.80
2023-02-21T15:37:17.938Z,73.80
2023-02-21T15:39:44.446Z,73.80
2023-02-21T15:42:10.931Z,73.80
2023-02-21T15:44:37.394Z,73.70
2023-02-21T15:47:03.881Z,74.00
2023-02-21T15:49:30.363Z,73.80
2023-02-21T15:51:56.842Z,74.00
2023-02-21T15:54:23.314Z,73.80
2023-02-21T15:56:49.796Z,73.90
2023-02-21T15:59:16.285Z,73.90
2023-02-21T16:01:42.848Z,73.90
2023-02-21T16:04:09.408Z,73.80
2023-02-21T16:06:35.895Z,73.80
2023-02-21T16:09:02.384Z,73.90
2023-02-21T16:11:28.884Z,73.80
2023-02-21T16:13:55.367Z,73.80
2023-02-21T16:16:21.827Z,74.00
2023-02-21T16:18:48.330Z,74.00
2023-02-21T16:21:14.986Z,74.00
2023-02-21T16:23:41.661Z,73.90
2023-02-21T16:26:08.146Z,74.10
2023-02-21T16:28:34.620Z,74.00
2023-02-21T16:31:01.149Z,73.80
2023-02-21T16:33:27.666Z,73.80
2023-02-21T16:35:54.143Z,73.60
2023-02-21T16:38:20.632Z,73.90
2023-02-21T16:40:47.109Z,74.00
2023-02-21T16:43:13.586Z,73.90
2023-02-21T16:45:40.103Z,73.90
2023-02-21T16:48:06.567Z,73.90
2023-02-21T16:50:33.092Z,73.90
2023-02-21T16:52:59.582Z,73.90
2023-02-21T16:55:26.069Z,73.90
2023-02-21T16:57:53.882Z,73.90
2023-02-21T17:00:20.479Z,73.90
2023-02-21T17:02:47.032Z,73.90
2023-02-21T17:05:13.539Z,73.80
2023-02-21T17:07:40.036Z,73.90
2023-02-21T17:10:06.500Z,73.90
2023-02-21T17:12:33.009Z,73.80
2023-02-21T17:14:59.499Z,73.90
2023-02-21T17:17:25.963Z,73.80
2023-02-21T17:19:52.424Z,73.90
2023-02-21T17:22:18.895Z,73.80
2023-02-21T17:24:45.352Z,73.60
2023-02-21T17:27:11.843Z,73.90
2023-02-21T17:29:38.318Z,73.70
2023-02-21T17:32:04.787Z,73.80
2023-02-21T17:34:31.234Z,73.90
2023-02-21T17:36:57.684Z,73.90
2023-02-21T17:39:24.138Z,73.80
2023-02-21T17:41:50.625Z,73.90
2023-02-21T17:44:17.101Z,74.00
2023-02-21T17:46:43.622Z,73.90
2023-02-21T17:49:10.116Z,73.80
2023-02-21T17:51:36.573Z,73.80
2023-02-21T17:54:03.037Z,73.80
2023-02-21T17:56:29.514Z,73.90
2023-02-21T17:58:55.975Z,73.80
2023-02-21T18:01:22.514Z,73.80
2023-02-21T18:03:49.029Z,73.90
2023-02-21T18:06:15.518Z,73.90
2023-02-21T18:08:42.015Z,73.70
2023-02-21T18:11:08.478Z,73.80
2023-02-21T18:13:34.941Z,73.70
2023-02-21T18:16:01.462Z,73.80
2023-02-21T18:18:27.970Z,73.70
2023-02-21T18:20:54.452Z,73.80
2023-02-21T18:23:20.936Z,73.60
2023-02-21T18:25:47.412Z,73.60
2023-02-21T18:28:13.870Z,73.60
2023-02-21T18:30:40.396Z,73.80
2023-02-21T18:33:06.911Z,73.90
2023-02-21T18:35:33.386Z,73.90
2023-02-21T18:37:59.874Z,73.80
2023-02-21T18:40:26.365Z,73.80
2023-02-21T18:42:53.941Z,73.80
2023-02-21T18:45:20.400Z,73.70
2023-02-21T18:47:46.862Z,73.70
2023-02-21T18:50:13.352Z,73.70
2023-02-21T18:52:39.893Z,73.80
2023-02-21T18:55:06.364Z,73.60
2023-02-21T18:57:32.867Z,73.60
2023-02-21T18:59:59.355Z,73.60
2023-02-21T19:02:25.846Z,73.50
2023-02-21T19:04:52.311Z,73.60
2023-02-21T19:07:18.803Z,73.60
2023-02-21T19:09:45.282Z,73.70
2023-02-21T19:12:11.758Z,73.60
2023-02-21T19:14:38.225Z,73.60
2023-02-21T19:17:07.469Z,73.60
2023-02-21T19:19:34.289Z,73.70
2023-02-21T19:22:00.748Z,73.60
2023-02-21T19:24:27.223Z,73.40
2023-02-21T19:26:53.722Z,73.60
2023-02-21T19:29:20.219Z,73.60
2023-02-21T19:31:46.790Z,73.50
2023-02-21T19:34:13.290Z,73.50
2023-02-21T19:36:39.773Z,73.60
2023-02-21T19:39:06.259Z,73.60
2023-02-21T19:41:32.724Z,73.60
2023-02-21T19:43:59.202Z,73.50
2023-02-21T19:46:25.678Z,73.30
2023-02-21T19:48:52.132Z,73.60
2023-02-21T19:51:18.613Z,73.80
2023-02-21T19:53:45.101Z,73.70
2023-02-21T19:56:11.582Z,73.90
2023-02-21T19:58:38.153Z,73.90
2023-02-21T20:01:04.659Z,73.90
2023-02-21T20:03:31.152Z,73.70
2023-02-21T20:05:57.627Z,73.60
2023-02-21T20:08:24.091Z,73.60
2023-02-21T20:10:50.577Z,73.50
2023-02-21T20:13:17.052Z,73.40
2023-02-21T20:15:43.511Z,73.60
2023-02-21T20:18:09.997Z,73.40
2023-02-21T20:20:36.497Z,73.40
2023-02-21T20:23:02.985Z,73.60
2023-02-21T20:25:29.455Z,73.50
2023-02-21T20:27:55.924Z,73.50
2023-02-21T20:30:24.581Z,73.60
2023-02-21T20:32:51.469Z,73.70
2023-02-21T20:35:17.940Z,74.30
2023-02-21T20:37:44.424Z,73.60
2023-02-21T20:40:10.895Z,73.40
2023-02-21T20:42:37.399Z,73.40
2023-02-21T20:45:03.865Z,73.40
2023-02-21T20:47:30.364Z,73.50
2023-02-21T20:49:56.835Z,73.50
2023-02-21T20:52:23.329Z,73.50
2023-02-21T20:54:49.809Z,73.60
2023-02-21T20:57:16.292Z,73.40
2023-02-21T20:59:42.766Z,73.20
2023-02-21T21:02:09.253Z,73.30
2023-02-21T21:04:35.897Z,73.40
2023-02-21T21:07:02.443Z,73.40
2023-02-21T21:09:28.961Z,73.40
2023-02-21T21:11:55.483Z,73.50
2023-02-21T21:14:21.968Z,73.40
2023-02-21T21:16:48.471Z,73.40
2023-02-21T21:19:14.988Z,73.40
2023-02-21T21:21:41.454Z,73.30
2023-02-21T21:24:07.914Z,73.30
2023-02-21T21:26:34.405Z,73.30
2023-02-21T21:29:00.884Z,73.20
2023-02-21T21:31:27.378Z,73.30
2023-02-21T21:33:53.861Z,73.30
2023-02-21T21:36:20.350Z,73.20
2023-02-21T21:38:46.816Z,73.40
2023-02-21T21:41:13.447Z,73.30
2023-02-21T21:43:40.027Z,73.20
2023-02-21T21:46:06.509Z,73.10
2023-02-21T21:48:32.996Z,73.20
2023-02-21T21:50:59.464Z,73.20
2023-02-21T21:53:25.945Z,73.10
2023-02-21T21:55:52.427Z,73.10
2023-02-21T21:58:18.897Z,73.20
2023-02-21T22:00:45.384Z,73.10
2023-02-21T22:03:11.872Z,73.10
2023-02-21T22:05:38.345Z,72.90
2023-02-21T22:08:04.819Z,73.00
2023-02-21T22:10:31.303Z,73.00
2023-02-21T22:12:57.787Z,73.00
2023-02-21T22:15:24.269Z,73.00
2023-02-21T22:17:50.809Z,73.00
2023-02-21T22:20:17.308Z,73.10
2023-02-21T22:22:43.801Z,73.20
2023-02-21T22:25:12.237Z,73.20
2023-02-21T22:27:38.792Z,73.30
2023-02-21T22:30:05.302Z,73.10
2023-02-21T22:32:31.877Z,73.10
2023-02-21T22:34:58.383Z,73.20
2023-02-21T22:37:24.883Z,73.00
2023-02-21T22:39:51.360Z,73.00
2023-02-21T22:42:17.860Z,73.00
2023-02-21T22:44:44.320Z,72.90
2023-02-21T22:47:10.798Z,72.90
2023-02-21T22:49:37.251Z,72.90
2023-02-21T22:52:09.519Z,72.90
2023-02-21T22:54:35.996Z,73.00
2023-02-21T22:57:02.478Z,72.90
2023-02-21T22:59:28.976Z,72.90
2023-02-21T23:01:55.450Z,72.70
2023-02-21T23:04:21.932Z,72.50
2023-02-21T23:06:48.418Z,72.70
2023-02-21T23:09:14.897Z,72.70
2023-02-21T23:11:41.372Z,72.90
2023-02-21T23:14:07.838Z,72.80
2023-02-21T23:16:34.315Z,72.70
2023-02-21T23:19:00.790Z,73.50
2023-02-21T23:21:27.272Z,72.80
2023-02-21T23:23:53.756Z,72.80
2023-02-21T23:26:20.238Z,73.00
2023-02-21T23:28:46.738Z,72.80
2023-02-21T23:31:13.241Z,72.70
2023-02-21T23:33:39.720Z,72.80
2023-02-21T23:36:06.188Z,72.80
2023-02-21T23:38:32.667Z,72.80
2023-02-21T23:40:59.180Z,72.80
2023-02-21T23:43:25.717Z,72.90
2023-02-21T23:45:52.237Z,72.80
2023-02-21T23:48:18.733Z,72.70
2023-02-21T23:50:45.238Z,72.80
2023-02-21T23:53:11.694Z,72.80
2023-02-21T23:55:38.163Z,72.70
2023-02-21T23:58:04.635Z,72.80
